Tulse Hill, United Kingdom
Current Conditions -  °F | °C
As of 1:20 AM on Tuesday 23 Dec 2014 (Local Time) from EGLC Reporting Station
Broken Clouds Broken Clouds  
Wind Chill: 54°   Ceiling: 2800
Heat Index: 54°   Visibility: 6mi
Dew Point: 45°   Wind: 21mph
Humidity: 72%   Direction: 250°WSW
Pressure: 30.03"   Gusts: NA
Location:  51.44°N, 0.11°W
Report Text: EGLC 230120Z AUTO 25018KT 9999 BKN028/// 12/07 Q1017
Loading
Personal Weather Stations






























Interactive Weather Map New forecast layout! Learn more

10-Day Weather Forecast

Advertisements
Track Severe Weather on mobile